sensor_id;sensor_type;location;lat;lon;timestamp;temperature;humidity
23495;DHT22;26107;50.832;2.950;2022-12-29T00:14:59;11.80;99.90
23495;DHT22;26107;50.832;2.950;2022-12-29T00:30:22;11.80;99.90
23495;DHT22;26107;50.832;2.950;2022-12-29T00:45:42;11.90;99.90
23495;DHT22;26107;50.832;2.950;2022-12-29T01:00:42;11.80;99.90
23495;DHT22;26107;50.832;2.950;2022-12-29T01:15:50;11.70;99.90
23495;DHT22;26107;50.832;2.950;2022-12-29T01:30:51;11.60;99.90
23495;DHT22;26107;50.832;2.950;2022-12-29T01:45:52;11.70;99.90
23495;DHT22;26107;50.832;2.950;2022-12-29T02:00:54;11.60;99.90
23495;DHT22;26107;50.832;2.950;2022-12-29T02:31:03;10.90;99.90
23495;DHT22;26107;50.832;2.950;2022-12-29T02:46:22;10.70;99.90
23495;DHT22;26107;50.832;2.950;2022-12-29T03:31:41;10.70;99.90
23495;DHT22;26107;50.832;2.950;2022-12-29T03:46:42;10.70;99.90
23495;DHT22;26107;50.832;2.950;2022-12-29T04:01:43;10.70;99.90
23495;DHT22;26107;50.832;2.950;2022-12-29T04:16:43;10.80;99.90
23495;DHT22;26107;50.832;2.950;2022-12-29T04:31:44;10.70;99.90
23495;DHT22;26107;50.832;2.950;2022-12-29T04:46:45;10.60;99.90
23495;DHT22;26107;50.832;2.950;2022-12-29T05:01:45;10.70;99.90
23495;DHT22;26107;50.832;2.950;2022-12-29T05:16:46;10.70;99.90
23495;DHT22;26107;50.832;2.950;2022-12-29T05:31:46;10.60;99.90
23495;DHT22;26107;50.832;2.950;2022-12-29T05:46:47;10.80;99.90
23495;DHT22;26107;50.832;2.950;2022-12-29T06:01:47;10.70;99.90
23495;DHT22;26107;50.832;2.950;2022-12-29T06:16:48;10.70;99.90
23495;DHT22;26107;50.832;2.950;2022-12-29T06:31:49;10.70;99.90
23495;DHT22;26107;50.832;2.950;2022-12-29T06:46:51;10.60;99.90
23495;DHT22;26107;50.832;2.950;2022-12-29T07:01:52;10.60;99.90
23495;DHT22;26107;50.832;2.950;2022-12-29T07:16:53;10.50;99.90
23495;DHT22;26107;50.832;2.950;2022-12-29T07:31:53;10.60;99.90
23495;DHT22;26107;50.832;2.950;2022-12-29T07:46:54;10.50;99.90
23495;DHT22;26107;50.832;2.950;2022-12-29T08:01:54;10.40;99.90
23495;DHT22;26107;50.832;2.950;2022-12-29T08:16:55;10.20;99.90
23495;DHT22;26107;50.832;2.950;2022-12-29T08:31:57;10.00;99.90
23495;DHT22;26107;50.832;2.950;2022-12-29T08:46:58;9.80;99.90
23495;DHT22;26107;50.832;2.950;2022-12-29T09:01:58;9.60;99.90
23495;DHT22;26107;50.832;2.950;2022-12-29T09:16:59;9.50;99.90
23495;DHT22;26107;50.832;2.950;2022-12-29T09:32:18;9.80;99.90
23495;DHT22;26107;50.832;2.950;2022-12-29T09:47:20;9.80;99.90
23495;DHT22;26107;50.832;2.950;2022-12-29T10:02:44;9.70;99.90
23495;DHT22;26107;50.832;2.950;2022-12-29T10:33:19;9.70;99.90
23495;DHT22;26107;50.832;2.950;2022-12-29T10:48:30;9.80;99.90
23495;DHT22;26107;50.832;2.950;2022-12-29T11:03:46;9.90;99.90
23495;DHT22;26107;50.832;2.950;2022-12-29T11:18:48;9.60;99.90
23495;DHT22;26107;50.832;2.950;2022-12-29T11:33:49;9.70;99.90
23495;DHT22;26107;50.832;2.950;2022-12-29T11:48:50;9.60;99.90
23495;DHT22;26107;50.832;2.950;2022-12-29T12:04:15;9.70;99.90
23495;DHT22;26107;50.832;2.950;2022-12-29T12:19:40;9.80;99.90
23495;DHT22;26107;50.832;2.950;2022-12-29T12:34:44;9.70;99.90
23495;DHT22;26107;50.832;2.950;2022-12-29T13:05:34;8.90;99.90
23495;DHT22;26107;50.832;2.950;2022-12-29T13:21:02;8.70;99.90
23495;DHT22;26107;50.832;2.950;2022-12-29T13:36:33;8.70;99.90
23495;DHT22;26107;50.832;2.950;2022-12-29T13:51:38;8.50;99.90
23495;DHT22;26107;50.832;2.950;2022-12-29T14:06:58;8.90;99.90
23495;DHT22;26107;50.832;2.950;2022-12-29T14:22:03;9.20;99.90
23495;DHT22;26107;50.832;2.950;2022-12-29T14:37:44;9.00;99.90
23495;DHT22;26107;50.832;2.950;2022-12-29T14:52:57;9.20;99.90
23495;DHT22;26107;50.832;2.950;2022-12-29T15:07:58;9.30;99.90
23495;DHT22;26107;50.832;2.950;2022-12-29T15:23:09;8.70;99.90
23495;DHT22;26107;50.832;2.950;2022-12-29T15:38:19;8.60;99.90
23495;DHT22;26107;50.832;2.950;2022-12-29T15:53:27;8.40;99.90
23495;DHT22;26107;50.832;2.950;2022-12-29T16:08:34;8.50;99.90
23495;DHT22;26107;50.832;2.950;2022-12-29T16:23:37;8.40;99.90
23495;DHT22;26107;50.832;2.950;2022-12-29T16:38:38;8.30;99.90
23495;DHT22;26107;50.832;2.950;2022-12-29T16:53:40;8.30;99.90
23495;DHT22;26107;50.832;2.950;2022-12-29T17:08:43;8.40;99.90
23495;DHT22;26107;50.832;2.950;2022-12-29T17:23:44;8.30;99.90
23495;DHT22;26107;50.832;2.950;2022-12-29T17:38:45;8.30;99.90
23495;DHT22;26107;50.832;2.950;2022-12-29T17:53:46;8.20;99.90
23495;DHT22;26107;50.832;2.950;2022-12-29T18:08:47;8.00;99.90
23495;DHT22;26107;50.832;2.950;2022-12-29T18:23:48;8.10;99.90
23495;DHT22;26107;50.832;2.950;2022-12-29T18:38:49;8.00;99.90
23495;DHT22;26107;50.832;2.950;2022-12-29T18:53:51;7.80;99.90
23495;DHT22;26107;50.832;2.950;2022-12-29T19:08:53;7.90;99.90
23495;DHT22;26107;50.832;2.950;2022-12-29T19:23:53;7.80;99.90
23495;DHT22;26107;50.832;2.950;2022-12-29T19:38:54;7.70;99.90
23495;DHT22;26107;50.832;2.950;2022-12-29T19:53:56;7.70;99.90
23495;DHT22;26107;50.832;2.950;2022-12-29T20:09:00;7.60;99.90
23495;DHT22;26107;50.832;2.950;2022-12-29T20:24:02;7.40;99.90
23495;DHT22;26107;50.832;2.950;2022-12-29T20:39:05;7.40;99.90
23495;DHT22;26107;50.832;2.950;2022-12-29T20:54:06;7.40;99.90
23495;DHT22;26107;50.832;2.950;2022-12-29T21:09:07;7.20;99.90
23495;DHT22;26107;50.832;2.950;2022-12-29T21:24:08;7.30;99.90
23495;DHT22;26107;50.832;2.950;2022-12-29T21:39:08;7.30;99.90
23495;DHT22;26107;50.832;2.950;2022-12-29T21:54:09;7.30;99.90
23495;DHT22;26107;50.832;2.950;2022-12-29T22:09:29;7.40;99.90
23495;DHT22;26107;50.832;2.950;2022-12-29T22:24:48;7.50;99.90
23495;DHT22;26107;50.832;2.950;2022-12-29T22:39:49;7.40;99.90
23495;DHT22;26107;50.832;2.950;2022-12-29T22:54:49;7.40;99.90
23495;DHT22;26107;50.832;2.950;2022-12-29T23:09:50;7.20;99.90
23495;DHT22;26107;50.832;2.950;2022-12-29T23:24:51;7.20;99.90
23495;DHT22;26107;50.832;2.950;2022-12-29T23:39:51;7.30;99.90
23495;DHT22;26107;50.832;2.950;2022-12-29T23:54:52;7.10;99.90
